createdAt,value
2018-06-08T00:00:22.182Z,4.06
2018-06-08T00:06:17.460Z,4.48
2018-06-08T00:12:12.389Z,4.91
2018-06-08T00:18:07.154Z,5.35
2018-06-08T00:24:02.195Z,4.96
2018-06-08T00:29:57.215Z,5.42
2018-06-08T00:41:47.172Z,6.09
2018-06-08T00:41:47.249Z,5.67
2018-06-08T00:47:42.234Z,5.24
2018-06-08T00:53:37.230Z,4.87
2018-06-08T00:59:32.197Z,4.94
2018-06-08T01:05:38.229Z,4.67
2018-06-08T01:11:22.189Z,4.99
2018-06-08T01:29:07.227Z,5.47
2018-06-08T01:35:02.507Z,6.29
2018-06-08T01:40:57.201Z,6.13
2018-06-08T01:46:52.198Z,5.41
2018-06-08T01:52:47.177Z,5.89
2018-06-08T01:58:42.188Z,6.28
2018-06-08T02:04:37.233Z,4.94
2018-06-08T02:10:32.222Z,6.31
2018-06-08T02:16:27.239Z,7.83
2018-06-08T02:22:22.188Z,7.24
2018-06-08T02:28:17.204Z,6.15
2018-06-08T02:34:12.245Z,8.04
2018-06-08T02:40:07.328Z,6.98
2018-06-08T02:46:02.251Z,7.5
2018-06-08T02:51:57.232Z,6.8
2018-06-08T02:57:52.234Z,7.01
2018-06-08T03:03:47.236Z,6.72
2018-06-08T03:09:47.650Z,7.79
2018-06-08T03:15:37.239Z,6.9
2018-06-08T03:21:32.234Z,6.99
2018-06-08T03:27:27.197Z,6.57
2018-06-08T03:33:22.235Z,3.96
2018-06-08T03:39:17.245Z,2.15
2018-06-08T03:45:12.229Z,1.87
2018-06-08T03:51:07.326Z,1.7
2018-06-08T03:57:02.322Z,1.46
2018-06-08T04:02:57.312Z,1.46
2018-06-08T04:08:52.315Z,1.64
2018-06-08T04:20:42.336Z,1.46
2018-06-08T04:20:42.388Z,1.39
2018-06-08T04:26:37.230Z,1.56
2018-06-08T04:32:32.267Z,2.56
2018-06-08T04:38:27.264Z,1.95
2018-06-08T04:44:22.292Z,2.6
2018-06-08T04:50:17.243Z,2.96
2018-06-08T05:08:02.298Z,2.15
2018-06-08T05:08:02.395Z,2.15
2018-06-08T05:08:02.407Z,4.84
2018-06-08T05:25:47.311Z,2.7
2018-06-08T05:25:47.330Z,4.18
2018-06-08T05:25:47.370Z,4.18
2018-06-08T05:31:42.315Z,3.34
2018-06-08T05:38:08.505Z,3.49
2018-06-08T05:43:32.350Z,4.76
2018-06-08T05:55:22.283Z,3.96
2018-06-08T05:55:22.496Z,4.57
2018-06-08T06:01:17.391Z,4.76
2018-06-08T06:07:12.260Z,3.93
2018-06-08T06:19:02.398Z,3.55
2018-06-08T06:24:57.275Z,3.49
2018-06-08T06:30:52.293Z,3.9
2018-06-08T06:36:47.296Z,4.55
2018-06-08T06:42:42.415Z,3.24
2018-06-08T06:48:37.314Z,3.99
2018-06-08T06:54:32.333Z,2.9
2018-06-08T07:00:27.298Z,3.41
2018-06-08T07:06:22.368Z,3.6
2018-06-08T07:12:17.554Z,4.05
2018-06-08T07:18:12.325Z,3.73
2018-06-08T07:24:07.439Z,3.17
2018-06-08T07:30:02.350Z,4.56
2018-06-08T07:35:57.307Z,3.41
2018-06-08T07:41:52.307Z,3.4
2018-06-08T07:47:47.361Z,3.56
2018-06-08T07:53:42.437Z,3.03
2018-06-08T07:59:37.729Z,4
2018-06-08T08:05:32.352Z,2.87
2018-06-08T08:11:27.322Z,3.39
2018-06-08T08:17:22.326Z,3.39
2018-06-08T08:23:17.550Z,3.03
2018-06-08T08:29:12.345Z,2.8
2018-06-08T08:35:07.382Z,2.7
2018-06-08T08:41:02.346Z,3.07
2018-06-08T08:46:57.331Z,3.19
2018-06-08T08:58:47.366Z,1.88
2018-06-08T09:04:42.350Z,2.02
2018-06-08T09:10:37.353Z,2.67
2018-06-08T09:16:32.337Z,1.7
2018-06-08T09:22:27.356Z,1.47
2018-06-08T09:28:22.359Z,1.6
2018-06-08T09:34:17.390Z,1.74
2018-06-08T09:40:12.336Z,1.41
2018-06-08T09:46:07.363Z,1.6
2018-06-08T09:52:02.357Z,2.27
2018-06-08T09:57:57.342Z,2.78
2018-06-08T10:03:52.918Z,2.17
2018-06-08T10:09:47.943Z,2.23
2018-06-08T10:15:42.393Z,2
2018-06-08T10:27:33.139Z,1.9
2018-06-08T10:33:27.366Z,1.42
2018-06-08T10:39:22.385Z,1.48
2018-06-08T10:45:18.643Z,1.66
2018-06-08T10:51:12.388Z,1.66
2018-06-08T10:57:07.370Z,1.02
2018-06-08T11:03:02.473Z,1.54
2018-06-08T11:08:57.389Z,1.11
2018-06-08T11:14:53.175Z,1.02
2018-06-08T11:20:48.339Z,2.01
2018-06-08T11:26:42.952Z,1.14
2018-06-08T11:32:37.397Z,1.15
2018-06-08T11:38:32.739Z,1.9
2018-06-08T11:44:27.744Z,1.16
2018-06-08T11:50:22.490Z,2.11
2018-06-08T11:56:17.408Z,2.3
2018-06-08T12:02:12.398Z,1.97
2018-06-08T12:08:07.908Z,2.05
2018-06-08T12:14:02.413Z,2.42
2018-06-08T12:19:57.423Z,1.72
2018-06-08T12:25:52.531Z,2.09
2018-06-08T12:31:47.421Z,3.08
2018-06-08T12:37:42.448Z,1.44
2018-06-08T12:43:37.443Z,1.65
2018-06-08T12:49:32.678Z,0.96
2018-06-08T12:55:32.204Z,1.78
2018-06-08T13:01:31.285Z,1.63
2018-06-08T13:07:17.600Z,1.53
2018-06-08T13:13:12.589Z,1.41
2018-06-08T13:19:07.618Z,1.32
2018-06-08T13:25:02.569Z,1.15
2018-06-08T13:30:57.481Z,1.12
2018-06-08T13:36:52.456Z,1.24
2018-06-08T13:42:47.530Z,1.5
2018-06-08T13:48:42.452Z,1.65
2018-06-08T13:54:37.517Z,1.58
2018-06-08T14:00:32.477Z,0.97
2018-06-08T14:06:28.815Z,0.74
2018-06-08T14:12:23.887Z,1.4
2018-06-08T14:18:17.492Z,2.26
2018-06-08T14:24:13.265Z,1.05
2018-06-08T14:30:07.774Z,1.12
2018-06-08T14:36:40.617Z,3.59
2018-06-08T14:41:57.484Z,2.32
2018-06-08T14:47:52.466Z,2.92
2018-06-08T14:55:05.607Z,2.02
2018-06-08T14:59:42.505Z,2.06
2018-06-08T15:05:37.600Z,1.83
2018-06-08T15:11:32.478Z,1.99
2018-06-08T15:17:27.498Z,1.53
2018-06-08T15:23:22.525Z,2
2018-06-08T15:29:17.643Z,3.92
2018-06-08T15:35:12.537Z,2.04
2018-06-08T15:41:08.095Z,1.88
2018-06-08T15:47:02.511Z,1.41
2018-06-08T15:52:57.544Z,1.72
2018-06-08T15:58:52.500Z,1.55
2018-06-08T16:04:47.560Z,1.64
2018-06-08T16:10:42.618Z,1.59
2018-06-08T16:16:37.525Z,1.64
2018-06-08T16:22:32.584Z,1.93
2018-06-08T16:30:03.964Z,2.32
2018-06-08T16:34:23.376Z,2.02
2018-06-08T16:40:18.172Z,2.13
2018-06-08T16:46:12.950Z,2.07
2018-06-08T16:52:07.545Z,2.36
2018-06-08T16:58:02.554Z,2.42
2018-06-08T17:03:57.524Z,1.82
2018-06-08T17:09:52.568Z,2.33
2018-06-08T17:15:47.582Z,2
2018-06-08T17:21:42.517Z,2.25
2018-06-08T17:27:37.532Z,2.23
2018-06-08T17:33:33.132Z,2.72
2018-06-08T17:39:27.574Z,2.32
2018-06-08T17:45:23.421Z,1.87
2018-06-08T17:51:18.087Z,2.14
2018-06-08T17:57:13.011Z,2.5
2018-06-08T18:03:07.533Z,2.89
2018-06-08T18:09:02.561Z,2.45
2018-06-08T18:14:57.601Z,2.49
2018-06-08T18:20:52.554Z,2.51
2018-06-08T18:26:49.032Z,2.77
2018-06-08T18:32:42.621Z,2.37
2018-06-08T18:38:38.834Z,2
2018-06-08T18:44:32.595Z,3.2
2018-06-08T18:50:28.640Z,3.04
2018-06-08T18:56:22.587Z,3.3
2018-06-08T19:02:17.953Z,3.63
2018-06-08T19:08:14.519Z,3.62
2018-06-08T19:14:07.585Z,3.65
2018-06-08T19:20:02.570Z,4.05
2018-06-08T19:25:57.820Z,3.57
2018-06-08T19:31:52.579Z,7.79
2018-06-08T19:37:48.749Z,4.88
2018-06-08T19:43:42.638Z,4.34
2018-06-08T19:49:37.659Z,4.5
2018-06-08T19:55:32.643Z,4.22
2018-06-08T20:01:27.795Z,4.04
2018-06-08T20:07:22.590Z,4.26
2018-06-08T20:13:19.335Z,4.68
2018-06-08T20:19:12.593Z,5.35
2018-06-08T20:25:07.615Z,4.5
2018-06-08T20:31:02.662Z,3.32
2018-06-08T20:36:58.750Z,3.31
2018-06-08T20:42:52.632Z,3.58
2018-06-08T20:48:48.189Z,3.47
2018-06-08T20:54:43.090Z,3.02
2018-06-08T21:00:37.611Z,2.8
2018-06-08T21:06:33.030Z,2.92
2018-06-08T21:12:27.714Z,3.03
2018-06-08T21:18:22.694Z,3.57
2018-06-08T21:24:17.634Z,3.7
2018-06-08T21:30:12.651Z,3.7
2018-06-08T21:36:07.753Z,4.29
2018-06-08T21:42:02.959Z,4
2018-06-08T21:47:57.637Z,4.12
2018-06-08T21:53:52.746Z,3.29
2018-06-08T21:59:47.630Z,3.95
2018-06-08T22:05:42.653Z,4.57
2018-06-08T22:11:38.014Z,4.71
2018-06-08T22:17:32.646Z,5.38
2018-06-08T22:23:28.040Z,4.6
2018-06-08T22:29:22.709Z,5.18
2018-06-08T22:35:18.423Z,5.31
2018-06-08T22:41:12.633Z,5.55
2018-06-08T22:47:07.681Z,5.41
2018-06-08T22:53:02.827Z,4.76
2018-06-08T22:58:57.817Z,3.81
2018-06-08T23:04:52.652Z,3.6
2018-06-08T23:10:47.640Z,4.35
2018-06-08T23:16:42.640Z,4.62
2018-06-08T23:22:37.663Z,3.79
2018-06-08T23:28:32.741Z,4.14
2018-06-08T23:34:27.659Z,3.88
2018-06-08T23:40:23.421Z,4.48
2018-06-08T23:46:17.692Z,4.38
2018-06-08T23:52:12.710Z,4.41
2018-06-08T23:58:07.679Z,4.82
